Time;durP1;ratioP1;P1;durP2;ratioP2;P2;SDS_P1;SDS_P2;PMS_P1;PMS_P2;Temp;Humidity;BMP_temperature;BMP_pressure;BME280_temperature;BME280_humidity;BME280_pressure;Samples;Min_cycle;Max_cycle;Signal;HPM_P1;HPM_P2
2022/07/31 00:03:11;;;;;;;5.25;4.53;;;19.70;99.90;;;18.41;82.21;99657.88;10473442;27;96600;-83
2022/07/31 00:08:14;;;;;;;5.18;4.68;;;19.70;99.90;;;18.41;82.26;99665.94;10449989;27;96558;-81
2022/07/31 00:13:17;;;;;;;5.40;4.70;;;19.70;99.90;;;18.40;82.08;99658.91;10469118;27;97941;-82
2022/07/31 00:18:40;;;;;;;5.82;4.50;;;19.70;99.90;;;18.40;81.68;99664.28;10466699;27;96624;-85
2022/07/31 00:23:43;;;;;;;5.53;4.85;;;19.70;99.90;;;18.37;81.56;99670.13;10464455;27;96907;-80
2022/07/31 00:28:47;;;;;;;5.20;4.40;;;19.60;99.90;;;18.35;81.39;99666.88;10487459;27;96717;-79
2022/07/31 00:33:49;;;;;;;6.10;4.82;;;19.60;99.90;;;18.33;81.14;99658.19;10471941;27;96742;-80
2022/07/31 00:38:52;;;;;;;4.47;4.07;;;19.60;99.90;;;18.34;81.42;99665.22;10465311;27;97439;-80
2022/07/31 00:43:56;;;;;;;5.57;4.20;;;19.60;99.90;;;18.36;81.06;99663.13;10491617;27;96540;-80
2022/07/31 00:48:58;;;;;;;6.78;4.60;;;19.60;99.90;;;18.40;80.87;99668.84;10469862;27;97203;-80
2022/07/31 00:54:01;;;;;;;4.97;4.10;;;19.70;99.90;;;18.42;80.23;99672.97;10449915;27;96713;-80
2022/07/31 00:59:04;;;;;;;3.60;3.30;;;19.80;99.90;;;18.45;79.48;99679.72;10453804;27;96886;-81
2022/07/31 01:04:07;;;;;;;4.13;3.38;;;19.80;99.90;;;18.45;78.93;99674.34;10440178;27;99035;-80
2022/07/31 01:09:17;;;;;;;3.33;3.03;;;19.80;99.90;;;18.46;78.60;99667.91;10470522;27;97401;-80
2022/07/31 01:14:24;;;;;;;3.75;3.20;;;19.80;99.90;;;18.43;78.60;99677.28;10428491;27;96635;-80
2022/07/31 01:19:36;;;;;;;3.80;3.10;;;19.80;99.90;;;18.36;77.79;99673.88;10464340;27;96620;-80
2022/07/31 01:25:22;;;;;;;3.67;2.95;;;19.70;99.90;;;18.32;77.40;99667.31;10471100;27;97499;-80
2022/07/31 01:31:06;;;;;;;2.95;2.63;;;19.60;99.90;;;18.28;77.37;99668.00;10441500;27;98439;-80
2022/07/31 01:36:33;;;;;;;2.67;2.47;;;19.60;99.90;;;18.24;77.35;99670.34;10446596;27;97484;-81
2022/07/31 01:41:45;;;;;;;4.38;2.30;;;19.60;99.90;;;18.20;77.24;99661.09;10477861;27;97322;-82
2022/07/31 01:46:48;;;;;;;3.72;2.20;;;19.50;99.90;;;18.17;77.29;99662.41;10462530;27;98230;-81
2022/07/31 01:51:52;;;;;;;3.20;2.28;;;19.50;99.90;;;18.17;77.49;99658.84;10479768;27;96882;-79
2022/07/31 01:56:58;;;;;;;2.35;1.90;;;19.50;99.90;;;18.17;77.56;99661.53;10504917;27;96471;-80
2022/07/31 02:02:03;;;;;;;2.80;2.45;;;19.50;99.90;;;18.17;77.32;99658.84;10463290;27;97247;-81
2022/07/31 02:07:08;;;;;;;3.40;2.10;;;19.50;99.90;;;18.17;77.15;99656.16;10468411;27;96684;-80
2022/07/31 02:12:13;;;;;;;2.20;2.00;;;19.50;99.90;;;18.17;77.17;99659.69;10481018;27;96558;-82
2022/07/31 02:17:17;;;;;;;2.15;1.95;;;19.50;99.90;;;18.16;76.80;99658.03;10467015;27;96692;-81
2022/07/31 02:22:24;;;;;;;4.55;2.00;;;19.50;99.90;;;18.15;76.89;99651.03;10458218;27;96898;-81
2022/07/31 02:27:29;;;;;;;2.08;1.83;;;19.50;99.90;;;18.14;76.75;99651.25;10478881;27;98713;-81
2022/07/31 02:32:53;;;;;;;3.05;1.70;;;19.40;99.90;;;18.07;77.08;99643.31;10444663;27;98227;-81
2022/07/31 02:37:57;;;;;;;1.80;1.60;;;19.40;99.90;;;18.02;76.75;99645.03;10410599;27;96586;-82
2022/07/31 02:43:00;;;;;;;3.55;1.40;;;19.30;99.90;;;17.96;77.17;99640.59;10403496;27;96623;-81
2022/07/31 02:48:05;;;;;;;1.65;1.48;;;19.30;99.90;;;17.88;76.54;99631.81;10458978;27;97400;-81
2022/07/31 02:53:08;;;;;;;2.13;1.50;;;19.20;99.90;;;17.82;76.70;99640.78;10415237;27;96634;-80
2022/07/31 02:58:11;;;;;;;2.38;1.75;;;19.20;99.90;;;17.79;76.78;99635.84;10430045;27;98174;-80
2022/07/31 03:03:14;;;;;;;2.20;1.60;;;19.10;99.90;;;17.75;76.73;99640.06;10426028;27;96662;-81
2022/07/31 03:08:17;;;;;;;2.88;1.88;;;19.10;99.90;;;17.73;77.13;99636.75;10436297;27;96663;-81
2022/07/31 03:13:23;;;;;;;2.80;1.63;;;19.10;99.90;;;17.70;76.89;99636.38;10402263;28;96558;-81
2022/07/31 03:18:27;;;;;;;2.78;1.90;;;19.00;99.90;;;17.67;76.77;99640.31;10415029;27;98529;-80
2022/07/31 03:23:35;;;;;;;3.60;1.90;;;19.00;99.90;;;17.65;77.17;99629.00;10420913;27;96704;-80
2022/07/31 03:28:38;;;;;;;2.40;1.90;;;19.00;99.90;;;17.65;77.12;99631.69;10410041;27;96636;-81
2022/07/31 03:33:41;;;;;;;2.22;1.73;;;19.00;99.90;;;17.67;77.15;99635.78;10428057;27;96615;-81
2022/07/31 03:38:44;;;;;;;2.85;2.13;;;19.00;99.90;;;17.68;77.09;99633.91;10436024;27;97031;-81
2022/07/31 03:43:52;;;;;;;2.72;2.13;;;19.00;99.90;;;17.70;76.60;99631.00;10451110;27;96570;-84
2022/07/31 03:48:56;;;;;;;2.72;2.00;;;19.10;99.90;;;17.72;77.08;99629.75;10446734;27;98285;-81
2022/07/31 03:53:59;;;;;;;4.03;2.22;;;19.00;99.90;;;17.72;76.82;99637.81;10429083;27;98035;-79
2022/07/31 03:59:03;;;;;;;2.50;2.00;;;19.10;99.90;;;17.75;76.45;99647.28;10416998;27;96548;-80
2022/07/31 04:04:06;;;;;;;2.55;2.10;;;19.10;99.90;;;17.75;76.59;99647.28;10421166;27;96671;-81
2022/07/31 04:09:09;;;;;;;3.17;2.30;;;19.10;99.90;;;17.72;76.38;99643.19;10419573;27;96998;-79
2022/07/31 04:14:20;;;;;;;2.63;2.28;;;19.00;99.90;;;17.70;76.83;99653.31;10400880;28;96459;-80
2022/07/31 04:19:23;;;;;;;2.90;2.35;;;19.00;99.90;;;17.67;77.00;99649.22;10426544;27;96740;-80
2022/07/31 04:24:26;;;;;;;3.03;2.53;;;19.00;99.90;;;17.63;77.00;99648.03;10423939;27;97090;-80
2022/07/31 04:29:29;;;;;;;5.93;2.75;;;19.00;99.90;;;17.62;76.83;99651.75;10414442;28;96871;-80
2022/07/31 04:34:32;;;;;;;5.28;2.95;;;19.00;99.90;;;17.61;77.02;99655.50;10420687;27;98669;-82
2022/07/31 04:39:35;;;;;;;4.45;3.10;;;18.90;99.90;;;17.57;77.18;99656.16;10484524;27;96999;-82
2022/07/31 04:44:38;;;;;;;4.18;2.30;;;18.90;99.90;;;17.51;77.77;99655.22;10450589;27;96439;-83
2022/07/31 04:49:41;;;;;;;2.42;1.80;;;18.80;99.90;;;17.44;78.29;99653.66;10447197;27;98070;-83
2022/07/31 04:54:44;;;;;;;2.75;1.55;;;18.80;99.90;;;17.36;78.88;99658.28;10486439;27;97605;-79
2022/07/31 04:59:47;;;;;;;2.53;1.63;;;18.70;99.90;;;17.28;79.84;99650.53;10481731;27;96494;-83
2022/07/31 05:05:03;;;;;;;2.45;1.73;;;18.60;99.90;;;17.12;81.45;99656.50;10485470;27;96751;-85
2022/07/31 05:10:07;;;;;;;2.45;1.77;;;18.50;99.90;;;16.92;83.07;99662.09;10443406;27;97714;-86
2022/07/31 05:15:10;;;;;;;2.47;2.00;;;18.30;99.90;;;16.69;84.52;99659.19;10491146;27;98305;-85
2022/07/31 05:20:13;;;;;;;2.40;2.13;;;18.00;99.90;;;16.51;85.55;99659.97;10477387;27;96422;-86
2022/07/31 05:25:16;;;;;;;2.67;2.40;;;17.90;99.90;;;16.34;87.01;99659.69;10461558;27;96764;-84
2022/07/31 05:30:20;;;;;;;2.60;2.40;;;17.70;99.90;;;16.22;87.95;99661.44;10487442;27;96557;-86
2022/07/31 05:35:32;;;;;;;2.65;2.45;;;17.50;99.90;;;16.10;89.20;99653.28;10436574;27;97839;-84
2022/07/31 05:40:35;;;;;;;3.15;2.58;;;17.40;99.90;;;16.01;89.72;99665.28;10450922;27;97400;-85
2022/07/31 05:45:38;;;;;;;3.08;2.22;;;17.30;99.90;;;15.92;90.86;99667.41;10451181;27;96809;-87
2022/07/31 05:50:46;;;;;;;3.08;2.40;;;17.20;99.90;;;15.88;91.50;99662.69;10433448;27;96656;-87
2022/07/31 05:55:50;;;;;;;2.58;2.10;;;17.20;99.90;;;15.81;92.19;99668.09;10403922;28;96852;-84
2022/07/31 06:00:53;;;;;;;2.47;2.20;;;17.10;99.90;;;15.75;92.77;99667.09;10414559;27;96752;-87
2022/07/31 06:05:56;;;;;;;3.65;2.50;;;17.10;99.90;;;15.71;93.53;99668.56;10435171;27;97957;-86
2022/07/31 06:10:59;;;;;;;3.95;3.45;;;17.00;99.90;;;15.68;94.03;99677.00;10408092;28;96704;-89
2022/07/31 06:16:02;;;;;;;3.53;3.17;;;17.00;99.90;;;15.65;94.66;99661.38;10432242;27;96636;-87
2022/07/31 06:21:05;;;;;;;4.85;3.58;;;16.90;99.90;;;15.65;95.21;99666.75;10405101;27;96670;-88
2022/07/31 06:26:08;;;;;;;5.55;3.67;;;17.00;99.90;;;15.64;95.69;99670.44;10439125;27;97012;-83
2022/07/31 06:31:19;;;;;;;4.90;3.70;;;16.90;99.90;;;15.63;96.00;99676.00;10422422;27;96671;-86
2022/07/31 06:36:22;;;;;;;5.85;4.70;;;16.90;99.90;;;15.66;97.01;99683.63;10401403;27;97290;-86
2022/07/31 06:41:43;;;;;;;4.75;4.32;;;16.90;99.90;;;15.69;97.09;99677.84;10430967;27;96694;-92
2022/07/31 06:46:47;;;;;;;;;;;16.90;99.90;;;15.71;97.36;99690.00;10442817;27;96548;-92
2022/07/31 06:51:51;;;;;;;4.22;3.83;;;17.00;99.90;;;15.72;97.73;99688.94;10438738;27;98387;-90
2022/07/31 06:56:54;;;;;;;3.67;3.38;;;17.00;99.90;;;15.78;98.05;99687.28;10421935;27;98097;-87
2022/07/31 07:01:57;;;;;;;4.40;3.60;;;17.00;99.90;;;15.83;97.74;99678.56;10412589;27;98527;-88
2022/07/31 07:07:00;;;;;;;3.90;3.50;;;17.10;99.90;;;15.86;97.76;99691.56;10424952;27;96598;-89
2022/07/31 07:12:04;;;;;;;3.42;3.10;;;17.10;99.90;;;15.88;98.12;99684.13;10420546;27;96614;-85
2022/07/31 07:17:07;;;;;;;3.00;2.70;;;17.10;99.90;;;15.92;97.90;99669.25;10450250;27;96556;-86
2022/07/31 07:22:10;;;;;;;5.50;2.53;;;17.10;99.90;;;16.00;98.30;99672.50;10415811;27;96804;-86
2022/07/31 07:27:13;;;;;;;2.75;2.47;;;17.20;99.90;;;16.18;98.86;99661.03;10411919;27;96730;-93
2022/07/31 07:32:16;;;;;;;2.95;2.65;;;17.30;99.90;;;16.48;99.39;99658.53;10422504;27;98684;-95
2022/07/31 07:37:19;;;;;;;2.95;2.33;;;17.60;99.90;;;16.82;98.93;99667.97;10457160;27;98003;-94
2022/07/31 07:42:22;;;;;;;3.05;2.15;;;17.90;99.90;;;17.07;97.65;99670.59;10460764;27;96609;-94
2022/07/31 07:47:25;;;;;;;2.40;2.20;;;18.30;99.90;;;17.34;96.74;99678.38;10431805;27;96558;-94
2022/07/31 07:52:48;;;;;;;2.90;2.00;;;18.50;99.90;;;17.37;93.73;99673.34;10427717;27;98327;-92
2022/07/31 07:57:51;;;;;;;2.15;1.95;;;18.60;99.90;;;17.47;92.13;99667.47;10423503;27;96524;-92
2022/07/31 08:02:54;;;;;;;3.40;1.73;;;18.60;99.90;;;17.57;91.33;99664.22;10420317;27;99594;-89
2022/07/31 08:08:17;;;;;;;1.98;1.58;;;18.70;99.90;;;17.64;90.57;99665.78;10459090;27;96578;-91
2022/07/31 08:13:20;;;;;;;2.00;1.70;;;18.80;99.90;;;17.66;89.41;99679.00;10453447;27;96724;-90
2022/07/31 08:18:23;;;;;;;2.10;1.67;;;18.90;99.90;;;17.64;88.12;99694.53;10442415;27;96971;-91
2022/07/31 08:23:30;;;;;;;2.00;1.70;;;18.90;99.90;;;17.65;87.74;99693.47;10445520;27;96520;-92
2022/07/31 08:28:34;;;;;;;2.85;1.70;;;18.90;99.90;;;17.70;86.93;99700.88;10428908;27;97186;-93
2022/07/31 08:33:38;;;;;;;2.67;1.55;;;18.90;99.90;;;17.72;86.35;99704.19;10435132;27;97129;-92
2022/07/31 08:38:41;;;;;;;1.55;1.30;;;18.90;99.90;;;17.82;84.96;99701.78;10473898;27;97827;-91
2022/07/31 08:43:44;;;;;;;2.38;1.35;;;19.00;99.90;;;17.81;83.44;99700.97;10481214;27;97234;-89
2022/07/31 08:49:08;;;;;;;;;;;19.00;99.90;;;17.84;82.68;99688.91;10461156;27;96761;-90
2022/07/31 08:54:15;;;;;;;1.45;1.30;;;19.10;99.90;;;17.87;81.97;99692.00;10478550;27;96625;-95
2022/07/31 08:59:18;;;;;;;1.77;1.08;;;19.10;99.90;;;17.91;81.48;99695.03;10470153;27;96645;-94
2022/07/31 09:04:25;;;;;;;2.63;1.48;;;19.10;99.90;;;17.93;79.92;99692.91;10485289;27;97017;-89
2022/07/31 09:09:29;;;;;;;1.67;0.95;;;19.10;99.90;;;18.00;78.97;99685.59;10456471;27;97134;-90
2022/07/31 09:14:52;;;;;;;2.25;0.80;;;19.20;99.90;;;18.10;78.52;99683.16;10473689;27;97480;-87
2022/07/31 09:19:55;;;;;;;1.67;0.80;;;19.30;99.90;;;18.16;76.92;99700.25;10445810;27;97152;-93
2022/07/31 09:25:20;;;;;;;1.88;1.05;;;19.40;99.90;;;18.27;76.27;99696.78;10475372;27;96951;-87
2022/07/31 09:30:23;;;;;;;1.30;0.82;;;19.50;99.90;;;18.54;74.44;99701.75;10469593;27;97285;-90
2022/07/31 09:35:27;;;;;;;2.03;0.80;;;19.70;99.90;;;18.90;74.17;99706.97;10455009;27;98228;-88
2022/07/31 09:40:37;;;;;;;3.20;0.80;;;20.10;99.90;;;19.30;72.32;99711.59;10411212;27;98066;-87
2022/07/31 09:45:59;;;;;;;1.25;0.80;;;20.50;99.90;;;19.52;70.58;99726.09;10426094;27;98500;-87
2022/07/31 09:51:06;;;;;;;2.40;0.80;;;20.70;99.90;;;19.46;70.04;99732.44;10412405;27;98885;-86
2022/07/31 09:56:11;;;;;;;0.85;0.70;;;20.70;99.90;;;19.22;69.15;99728.13;10421439;27;97370;-85
2022/07/31 10:01:14;;;;;;;1.17;0.73;;;20.50;99.90;;;19.04;69.39;99731.78;10414643;27;97476;-83
2022/07/31 10:06:20;;;;;;;1.77;0.80;;;20.40;99.90;;;19.05;69.43;99729.91;10395536;27;97331;-84
2022/07/31 10:11:24;;;;;;;2.53;0.95;;;20.30;99.90;;;18.93;69.16;99741.47;10423275;27;96924;-87
2022/07/31 10:16:34;;;;;;;1.15;0.90;;;20.20;99.90;;;18.91;70.54;99703.22;10414826;27;96807;-85
2022/07/31 10:21:41;;;;;;;3.17;0.95;;;20.10;99.90;;;18.95;70.31;99704.38;10423346;27;97101;-86
2022/07/31 10:26:44;;;;;;;1.40;0.80;;;20.20;99.90;;;19.07;70.22;99699.00;10409961;27;97546;-84
2022/07/31 10:32:08;;;;;;;3.20;0.80;;;20.30;99.90;;;19.25;69.45;99698.00;10428861;27;96876;-85
2022/07/31 10:37:19;;;;;;;2.35;0.90;;;20.50;99.90;;;19.50;68.94;99689.66;10385619;28;97472;-82
2022/07/31 10:42:44;;;;;;;1.65;0.80;;;20.70;99.90;;;19.77;69.02;99698.03;10432570;27;96792;-83
2022/07/31 10:47:56;;;;;;;1.48;1.02;;;20.90;99.90;;;20.11;67.71;99707.03;10434026;27;96726;-85
2022/07/31 10:53:14;;;;;;;1.75;0.90;;;21.30;99.90;;;20.22;66.72;99708.06;10462493;27;96766;-86
2022/07/31 10:58:18;;;;;;;3.05;1.10;;;21.50;99.20;;;20.23;66.13;99720.47;10442678;27;97095;-87
2022/07/31 11:03:21;;;;;;;1.00;0.90;;;21.50;98.90;;;20.14;65.42;99735.41;10460420;27;96591;-84
2022/07/31 11:08:25;;;;;;;3.20;1.23;;;21.50;97.90;;;19.93;65.29;99759.31;10458435;27;98047;-85
2022/07/31 11:13:29;;;;;;;1.65;1.00;;;21.30;97.80;;;19.78;65.46;99770.56;10459591;27;96785;-84
2022/07/31 11:18:39;;;;;;;1.58;0.88;;;21.10;97.70;;;19.62;65.36;99784.81;10459476;27;96662;-85
2022/07/31 11:23:42;;;;;;;2.67;1.00;;;20.90;97.40;;;19.47;65.69;99800.59;10435663;27;97121;-88
2022/07/31 11:29:04;;;;;;;1.35;1.00;;;20.80;97.50;;;19.45;65.60;99795.47;10443619;27;97211;-89
2022/07/31 11:34:27;;;;;;;2.45;0.98;;;20.70;97.60;;;19.42;66.31;99793.22;10452653;27;96759;-86
2022/07/31 11:39:30;;;;;;;1.77;1.08;;;20.70;97.90;;;19.40;66.39;99797.22;10431271;27;96587;-88
2022/07/31 11:44:39;;;;;;;3.35;1.15;;;20.70;97.90;;;19.42;66.43;99800.50;10407479;27;96592;-85
2022/07/31 11:49:43;;;;;;;1.65;1.10;;;20.70;98.20;;;19.40;66.67;99798.03;10403167;27;96582;-87
2022/07/31 11:55:01;;;;;;;1.40;1.15;;;20.70;98.20;;;19.47;66.99;99793.34;10418727;27;96582;-87
2022/07/31 12:00:15;;;;;;;3.42;1.40;;;20.70;98.40;;;19.62;66.69;99810.97;10433376;27;96565;-87
2022/07/31 12:05:44;;;;;;;1.67;1.00;;;20.90;98.00;;;19.80;66.09;99818.06;10402373;27;96591;-89
2022/07/31 12:10:50;;;;;;;1.42;1.17;;;21.10;97.80;;;19.82;65.32;99813.25;10411601;27;96945;-86
2022/07/31 12:15:58;;;;;;;2.42;1.30;;;21.10;97.20;;;19.70;64.66;99810.59;10432098;27;98389;-89
2022/07/31 12:21:03;;;;;;;1.33;1.00;;;21.00;96.60;;;19.49;65.27;99812.81;10429253;27;97923;-87
2022/07/31 12:26:09;;;;;;;2.95;1.15;;;20.80;97.00;;;19.29;65.79;99825.81;10418672;27;97404;-86
2022/07/31 12:31:12;;;;;;;1.63;1.13;;;20.60;97.10;;;19.03;66.14;99823.56;10423479;27;96668;-88
2022/07/31 12:36:16;;;;;;;2.15;1.20;;;20.40;97.20;;;18.87;67.61;99828.56;10409139;27;96574;-89
2022/07/31 12:41:19;;;;;;;1.55;1.00;;;20.20;98.10;;;18.80;68.11;99829.72;10397115;27;96600;-90
2022/07/31 12:46:37;;;;;;;6.38;1.30;;;20.10;98.60;;;18.73;68.17;99824.44;10445631;27;97013;-88
2022/07/31 12:51:41;;;;;;;1.65;0.90;;;20.10;98.40;;;18.65;67.99;99827.41;10400937;27;96622;-87
2022/07/31 12:56:48;;;;;;;2.83;1.17;;;20.00;98.20;;;18.61;68.25;99819.00;10418879;27;96890;-87
2022/07/31 13:01:51;;;;;;;1.95;1.20;;;20.00;98.70;;;18.56;68.29;99816.16;10413441;27;96648;-88
2022/07/31 13:06:54;;;;;;;2.63;1.20;;;20.00;98.50;;;18.42;68.88;99839.75;10428860;27;97172;-90
2022/07/31 13:11:57;;;;;;;2.13;1.40;;;19.80;98.90;;;18.29;70.22;99825.63;10417954;27;96669;-87
2022/07/31 13:17:00;;;;;;;2.00;1.00;;;19.60;99.80;;;18.22;71.51;99820.34;10413545;27;98052;-83
2022/07/31 13:22:03;;;;;;;1.77;1.08;;;19.60;99.90;;;18.15;71.63;99819.63;10416279;27;96529;-82
2022/07/31 13:27:07;;;;;;;2.30;1.23;;;19.50;99.90;;;18.10;71.12;99820.28;10420522;27;97340;-83
2022/07/31 13:32:10;;;;;;;2.70;1.08;;;19.50;99.90;;;18.07;71.07;99815.38;10438728;27;97342;-85
2022/07/31 13:37:13;;;;;;;3.28;0.90;;;19.40;99.90;;;17.98;70.21;99792.53;10432826;27;96740;-82
2022/07/31 13:42:16;;;;;;;1.48;1.13;;;19.40;99.90;;;17.94;69.83;99801.28;10432517;27;97136;-82
2022/07/31 13:47:20;;;;;;;1.40;1.10;;;19.30;99.40;;;17.87;69.40;99799.50;10424873;27;97379;-84
2022/07/31 13:52:22;;;;;;;6.20;1.30;;;19.20;99.10;;;17.88;68.20;99785.00;10427040;27;96588;-84
2022/07/31 13:57:25;;;;;;;3.35;1.10;;;19.20;98.60;;;17.90;66.95;99795.53;10438670;27;96809;-83
2022/07/31 14:02:28;;;;;;;2.83;1.30;;;19.20;97.90;;;17.92;66.72;99785.34;10422411;27;96701;-84
2022/07/31 14:07:32;;;;;;;2.88;1.40;;;19.20;97.50;;;17.92;67.17;99790.75;10450525;27;96646;-83
2022/07/31 14:12:49;;;;;;;1.60;1.30;;;19.30;97.80;;;17.80;66.55;99771.84;10442482;27;96545;-84
2022/07/31 14:17:52;;;;;;;3.25;1.20;;;19.10;97.50;;;17.65;67.08;99790.22;10441219;27;98382;-84
2022/07/31 14:22:55;;;;;;;2.05;1.10;;;19.00;97.60;;;17.39;68.67;99800.19;10420834;27;96586;-83
2022/07/31 14:27:58;;;;;;;1.75;1.10;;;18.70;98.70;;;17.12;69.99;99806.84;10436181;27;97131;-82
2022/07/31 14:33:03;;;;;;;1.48;1.10;;;18.50;99.40;;;16.93;71.68;99823.94;10429812;27;96682;-84
2022/07/31 14:38:06;;;;;;;2.20;1.30;;;18.30;99.90;;;16.72;73.25;99836.66;10441633;27;97350;-82
2022/07/31 14:43:10;;;;;;;2.08;1.40;;;18.10;99.90;;;16.56;74.63;99845.22;10430256;27;97687;-86
2022/07/31 14:48:14;;;;;;;2.33;1.40;;;17.90;99.90;;;16.51;74.37;99839.66;10424551;27;98118;-86
2022/07/31 14:53:17;;;;;;;1.73;1.27;;;17.80;99.90;;;16.60;73.24;99849.09;10439262;27;98028;-83
2022/07/31 14:58:20;;;;;;;2.63;1.30;;;17.90;99.90;;;16.76;71.98;99845.94;10446703;27;97443;-85
2022/07/31 15:03:23;;;;;;;1.88;1.30;;;18.10;99.90;;;16.98;71.55;99827.63;10449377;27;96550;-85
2022/07/31 15:08:26;;;;;;;1.98;1.48;;;18.30;99.90;;;17.25;71.43;99824.69;10440468;27;96556;-85
2022/07/31 15:13:29;;;;;;;2.33;1.30;;;18.60;99.90;;;17.48;70.01;99818.69;10451094;27;96794;-85
2022/07/31 15:18:32;;;;;;;2.72;1.10;;;18.90;99.70;;;17.61;68.93;99813.19;10451105;27;96528;-86
2022/07/31 15:23:36;;;;;;;1.20;1.08;;;19.00;99.10;;;17.70;67.39;99809.19;10429649;27;96545;-87
2022/07/31 15:28:38;;;;;;;2.38;1.27;;;19.10;98.20;;;17.79;67.30;99809.72;10433458;27;97137;-84
2022/07/31 15:33:42;;;;;;;1.98;1.20;;;19.20;98.00;;;17.87;65.71;99812.09;10456804;27;96848;-88
2022/07/31 15:38:45;;;;;;;2.13;1.25;;;19.30;97.00;;;17.95;65.00;99806.44;10460388;27;96489;-85
2022/07/31 15:43:48;;;;;;;2.75;1.80;;;19.40;96.40;;;18.02;65.66;99804.47;10431067;27;100906;-91
2022/07/31 15:48:51;;;;;;;2.40;1.55;;;19.50;96.90;;;18.08;66.39;99805.44;10434343;27;96701;-90
2022/07/31 15:53:54;;;;;;;3.10;2.08;;;19.50;97.20;;;18.08;66.68;99800.88;10420003;27;97382;-89
2022/07/31 15:58:58;;;;;;;1.90;1.20;;;19.60;97.30;;;18.06;67.12;99808.38;10435419;27;96665;-90
2022/07/31 16:04:02;;;;;;;2.78;1.45;;;19.60;97.40;;;18.02;67.90;99801.78;10412991;27;96750;-93
2022/07/31 16:09:18;;;;;;;2.15;1.60;;;19.50;97.70;;;17.99;68.77;99809.47;10414461;28;96652;-87
2022/07/31 16:14:21;;;;;;;2.63;1.48;;;19.50;98.20;;;17.96;68.58;99812.63;10435632;27;96578;-87
2022/07/31 16:19:25;;;;;;;2.53;1.85;;;19.50;98.30;;;17.95;69.58;99817.19;10437991;27;96549;-88
2022/07/31 16:24:29;;;;;;;1.73;1.58;;;19.50;98.50;;;17.96;69.64;99812.63;10435067;27;97302;-88
2022/07/31 16:29:33;;;;;;;2.33;1.80;;;19.50;98.60;;;17.97;69.04;99811.56;10410181;27;96490;-88
2022/07/31 16:34:57;;;;;;;2.40;1.80;;;19.50;98.50;;;17.97;69.65;99816.94;10422815;27;96523;-88
2022/07/31 16:40:05;;;;;;;3.30;1.90;;;19.50;98.80;;;18.00;70.16;99813.81;10400826;27;96960;-88
2022/07/31 16:45:09;;;;;;;2.13;1.60;;;19.50;99.10;;;18.02;70.81;99815.22;10436810;27;96818;-88
2022/07/31 16:50:12;;;;;;;5.95;1.77;;;19.60;99.30;;;18.05;71.14;99816.63;10441647;27;97879;-88
2022/07/31 16:55:15;;;;;;;2.60;1.75;;;19.60;99.50;;;18.07;71.91;99815.38;10420975;27;96749;-90
2022/07/31 17:00:17;;;;;;;5.03;1.70;;;19.70;99.90;;;18.05;72.58;99801.34;10437233;27;97379;-89
2022/07/31 17:05:20;;;;;;;3.75;1.70;;;19.70;99.90;;;18.08;72.61;99797.38;10452071;27;96690;-89
2022/07/31 17:10:23;;;;;;;4.22;1.80;;;19.70;99.90;;;18.08;73.13;99787.44;10397653;27;96561;-90
2022/07/31 17:15:28;;;;;;;2.30;1.90;;;19.70;99.90;;;18.09;73.82;99804.38;10434071;27;97034;-91
2022/07/31 17:20:31;;;;;;;2.85;1.67;;;19.80;99.90;;;18.10;74.39;99790.72;10420668;27;97461;-92
2022/07/31 17:25:35;;;;;;;2.78;1.70;;;19.70;99.90;;;18.11;74.42;99815.72;10438327;27;96568;-91
2022/07/31 17:30:38;;;;;;;2.67;1.90;;;19.70;99.90;;;18.10;74.54;99817.59;10430711;27;96594;-90
2022/07/31 17:35:40;;;;;;;2.20;1.45;;;19.70;99.90;;;18.08;74.68;99808.94;10420947;27;96821;-93
2022/07/31 17:40:45;;;;;;;3.30;1.73;;;19.60;99.90;;;18.04;73.92;99823.06;10402551;27;97757;-91
2022/07/31 17:45:49;;;;;;;2.58;1.83;;;19.60;99.90;;;18.04;74.83;99823.88;10433267;27;96644;-91
2022/07/31 17:51:11;;;;;;;2.67;1.80;;;19.60;99.90;;;18.07;75.40;99826.13;10445281;27;97005;-90
2022/07/31 17:56:15;;;;;;;5.28;2.40;;;19.60;99.90;;;18.08;75.84;99826.94;10444982;27;97180;-92
2022/07/31 18:01:18;;;;;;;3.75;2.50;;;19.60;99.90;;;18.06;76.11;99823.69;10407338;27;97103;-90
2022/07/31 18:06:21;;;;;;;5.53;2.90;;;19.60;99.90;;;18.06;76.42;99837.13;10438263;27;96541;-89
2022/07/31 18:11:24;;;;;;;7.10;2.83;;;19.60;99.90;;;18.01;76.87;99835.09;10430825;27;98344;-90
2022/07/31 18:16:27;;;;;;;3.75;1.95;;;19.60;99.90;;;17.98;77.38;99842.78;10418196;27;96581;-89
2022/07/31 18:21:30;;;;;;;2.47;2.05;;;19.60;99.90;;;17.89;77.25;99843.09;10437263;27;96935;-91
2022/07/31 18:26:34;;;;;;;2.60;1.90;;;19.50;99.90;;;17.83;77.44;99849.38;10427627;27;96637;-87
2022/07/31 18:31:37;;;;;;;2.88;2.45;;;19.40;99.90;;;17.77;77.51;99847.56;10412384;27;96640;-87
2022/07/31 18:36:40;;;;;;;3.20;2.00;;;19.40;99.90;;;17.72;77.93;99850.09;10419271;27;96994;-88
2022/07/31 18:41:43;;;;;;;3.08;2.30;;;19.30;99.90;;;17.66;77.85;99859.03;10422683;27;96580;-88
2022/07/31 18:46:51;;;;;;;2.80;2.45;;;19.20;99.90;;;17.60;78.28;99863.41;10423593;27;96834;-88
2022/07/31 18:51:55;;;;;;;3.97;2.15;;;19.20;99.90;;;17.56;79.32;99872.13;10404343;27;96664;-88
2022/07/31 18:56:59;;;;;;;3.90;2.90;;;19.20;99.90;;;17.50;79.52;99873.84;10443690;27;97378;-88
2022/07/31 19:02:03;;;;;;;4.00;2.67;;;19.10;99.90;;;17.46;79.98;99882.59;10453443;27;96711;-87
2022/07/31 19:07:07;;;;;;;9.60;3.17;;;19.00;99.90;;;17.41;80.71;99880.53;10444084;27;96684;-89
2022/07/31 19:12:12;;;;;;;6.10;2.20;;;19.00;99.90;;;17.35;80.68;99895.69;10400525;28;96595;-88
2022/07/31 19:17:15;;;;;;;3.05;2.10;;;19.00;99.90;;;17.34;80.84;99896.72;10402484;27;97164;-88
2022/07/31 19:22:23;;;;;;;3.13;2.33;;;19.00;99.90;;;17.29;80.55;99893.88;10456687;27;98173;-87
2022/07/31 19:27:26;;;;;;;4.15;2.28;;;18.90;99.90;;;17.27;80.64;99897.78;10426687;27;96687;-89
2022/07/31 19:32:49;;;;;;;4.13;2.30;;;18.90;99.90;;;17.24;80.49;99904.44;10422993;27;98138;-90
2022/07/31 19:38:01;;;;;;;2.47;2.08;;;18.90;99.90;;;17.19;80.43;99901.56;10441902;27;98292;-90
2022/07/31 19:43:04;;;;;;;3.45;1.83;;;18.80;99.90;;;17.15;79.79;99892.31;10407622;27;97040;-90
2022/07/31 19:48:07;;;;;;;2.60;1.98;;;18.70;99.90;;;17.14;79.64;99877.25;10411498;27;97281;-88
2022/07/31 19:53:10;;;;;;;2.42;2.10;;;18.70;99.90;;;17.12;79.29;99890.91;10441737;27;98089;-86
2022/07/31 19:58:16;;;;;;;7.93;2.30;;;18.70;99.90;;;17.13;79.39;99887.16;10417584;27;96824;-86
2022/07/31 20:03:18;;;;;;;5.30;1.90;;;18.70;99.90;;;17.13;79.34;99875.59;10417516;27;98102;-84
2022/07/31 20:08:22;;;;;;;2.78;2.03;;;18.70;99.90;;;17.15;79.04;99878.06;10403615;27;96527;-86
2022/07/31 20:13:26;;;;;;;12.32;2.60;;;18.70;99.90;;;17.19;78.75;99873.91;10409963;27;96597;-85
2022/07/31 20:18:29;;;;;;;2.40;1.67;;;18.80;99.90;;;17.20;78.15;99880.91;10435059;27;96904;-85
2022/07/31 20:23:36;;;;;;;1.70;1.58;;;18.90;99.90;;;17.23;77.73;99869.75;10417111;27;98130;-85
2022/07/31 20:28:39;;;;;;;2.55;1.85;;;18.80;99.90;;;17.23;77.10;99873.25;10419785;27;96602;-85
2022/07/31 20:33:42;;;;;;;3.90;1.52;;;18.90;99.90;;;17.24;77.00;99869.53;10448885;27;96485;-85
2022/07/31 20:38:59;;;;;;;2.28;1.45;;;18.90;99.90;;;17.22;75.17;99868.94;10435202;27;97468;-85
2022/07/31 20:44:02;;;;;;;1.60;1.27;;;18.90;99.90;;;17.25;73.90;99865.78;10413614;27;96599;-85
2022/07/31 20:49:05;;;;;;;2.42;1.40;;;18.90;99.90;;;17.29;73.88;99861.63;10402118;27;96545;-87
2022/07/31 20:54:08;;;;;;;1.50;1.40;;;18.90;99.90;;;17.31;73.10;99875.66;10426673;27;96840;-87
2022/07/31 20:59:11;;;;;;;3.55;1.38;;;18.90;99.90;;;17.32;73.67;99866.56;10398672;27;97433;-87
2022/07/31 21:04:16;;;;;;;2.85;1.67;;;18.90;99.90;;;17.32;74.41;99865.75;10437182;27;96648;-87
2022/07/31 21:09:19;;;;;;;1.75;1.55;;;18.90;99.90;;;17.31;75.08;99872.97;10401873;27;98277;-87
2022/07/31 21:14:22;;;;;;;2.10;1.67;;;18.90;99.90;;;17.23;75.28;99867.06;10403983;27;97045;-85